sensor_id;sensor_type;location;lat;lon;timestamp;pressure;altitude;pressure_sealevel;temperature;humidity
78835;BME280;68187;42.682;23.352;2023-03-01T00:01:26;95637.94;;;6.78;75.44
78835;BME280;68187;42.682;23.352;2023-03-01T00:03:54;95620.00;;;6.75;75.02
78835;BME280;68187;42.682;23.352;2023-03-01T00:06:22;95604.28;;;6.63;75.36
78835;BME280;68187;42.682;23.352;2023-03-01T00:08:49;95632.09;;;6.76;75.38
78835;BME280;68187;42.682;23.352;2023-03-01T00:11:20;95608.16;;;6.61;75.72
78835;BME280;68187;42.682;23.352;2023-03-01T00:13:48;95618.66;;;6.61;76.30
78835;BME280;68187;42.682;23.352;2023-03-01T00:16:18;95603.91;;;6.36;76.45
78835;BME280;68187;42.682;23.352;2023-03-01T00:18:45;95618.94;;;6.41;76.66
78835;BME280;68187;42.682;23.352;2023-03-01T00:21:12;95598.75;;;6.30;76.87
78835;BME280;68187;42.682;23.352;2023-03-01T00:23:40;95602.41;;;6.17;77.30
78835;BME280;68187;42.682;23.352;2023-03-01T00:26:08;95600.69;;;6.34;76.87
78835;BME280;68187;42.682;23.352;2023-03-01T00:28:37;95587.69;;;6.16;77.09
78835;BME280;68187;42.682;23.352;2023-03-01T00:31:05;95598.88;;;6.23;77.74
78835;BME280;68187;42.682;23.352;2023-03-01T00:33:32;95601.25;;;6.25;77.38
78835;BME280;68187;42.682;23.352;2023-03-01T00:35:59;95570.81;;;6.12;77.58
78835;BME280;68187;42.682;23.352;2023-03-01T00:38:26;95588.63;;;6.33;76.79
78835;BME280;68187;42.682;23.352;2023-03-01T00:40:53;95589.53;;;6.39;76.80
78835;BME280;68187;42.682;23.352;2023-03-01T00:43:20;95582.91;;;6.36;76.70
78835;BME280;68187;42.682;23.352;2023-03-01T00:45:48;95574.56;;;6.28;76.73
78835;BME280;68187;42.682;23.352;2023-03-01T00:48:14;95568.53;;;6.27;76.82
78835;BME280;68187;42.682;23.352;2023-03-01T00:50:41;95583.13;;;6.23;77.06
78835;BME280;68187;42.682;23.352;2023-03-01T00:53:08;95574.94;;;6.20;76.77
78835;BME280;68187;42.682;23.352;2023-03-01T00:55:35;95589.97;;;6.24;76.58
78835;BME280;68187;42.682;23.352;2023-03-01T00:58:02;95580.63;;;6.17;77.16
78835;BME280;68187;42.682;23.352;2023-03-01T01:00:30;95574.91;;;6.08;77.39
78835;BME280;68187;42.682;23.352;2023-03-01T01:02:58;95572.38;;;6.13;77.31
78835;BME280;68187;42.682;23.352;2023-03-01T01:05:25;95546.84;;;5.97;77.29
78835;BME280;68187;42.682;23.352;2023-03-01T01:07:52;95587.69;;;6.16;77.37
78835;BME280;68187;42.682;23.352;2023-03-01T01:10:19;95588.00;;;6.08;77.64
78835;BME280;68187;42.682;23.352;2023-03-01T01:12:46;95593.03;;;6.10;77.29
78835;BME280;68187;42.682;23.352;2023-03-01T01:15:13;95579.06;;;5.98;77.59
78835;BME280;68187;42.682;23.352;2023-03-01T01:17:42;95595.31;;;6.18;77.45
78835;BME280;68187;42.682;23.352;2023-03-01T01:20:11;95588.91;;;6.14;77.35
78835;BME280;68187;42.682;23.352;2023-03-01T01:22:38;95579.34;;;6.08;77.31
78835;BME280;68187;42.682;23.352;2023-03-01T01:25:06;95579.69;;;6.23;76.70
78835;BME280;68187;42.682;23.352;2023-03-01T01:27:32;95586.13;;;6.27;76.41
78835;BME280;68187;42.682;23.352;2023-03-01T01:29:59;95577.53;;;6.08;76.42
78835;BME280;68187;42.682;23.352;2023-03-01T01:32:26;95582.88;;;6.13;76.89
78835;BME280;68187;42.682;23.352;2023-03-01T01:34:53;95565.78;;;5.99;76.17
78835;BME280;68187;42.682;23.352;2023-03-01T01:37:21;95590.06;;;6.06;76.56
78835;BME280;68187;42.682;23.352;2023-03-01T01:39:48;95582.03;;;5.90;76.98
78835;BME280;68187;42.682;23.352;2023-03-01T01:42:16;95573.81;;;5.86;75.95
78835;BME280;68187;42.682;23.352;2023-03-01T01:44:46;95599.34;;;5.91;76.85
78835;BME280;68187;42.682;23.352;2023-03-01T01:47:15;95603.56;;;5.92;76.49
78835;BME280;68187;42.682;23.352;2023-03-01T01:49:45;95613.16;;;5.98;76.43
78835;BME280;68187;42.682;23.352;2023-03-01T01:52:18;95602.19;;;5.89;76.31
78835;BME280;68187;42.682;23.352;2023-03-01T01:54:50;95603.81;;;5.90;76.54
78835;BME280;68187;42.682;23.352;2023-03-01T01:57:22;95592.78;;;5.82;76.62
78835;BME280;68187;42.682;23.352;2023-03-01T01:59:52;95575.72;;;5.79;76.28
78835;BME280;68187;42.682;23.352;2023-03-01T02:02:20;95570.44;;;5.97;75.60
78835;BME280;68187;42.682;23.352;2023-03-01T02:04:48;95540.47;;;5.75;75.41
78835;BME280;68187;42.682;23.352;2023-03-01T02:07:18;95578.53;;;6.07;75.58
78835;BME280;68187;42.682;23.352;2023-03-01T02:09:49;95580.94;;;6.09;75.13
78835;BME280;68187;42.682;23.352;2023-03-01T02:12:18;95574.91;;;6.08;74.85
78835;BME280;68187;42.682;23.352;2023-03-01T02:14:45;95561.56;;;6.10;74.77
78835;BME280;68187;42.682;23.352;2023-03-01T02:17:15;95555.50;;;6.09;74.31
78835;BME280;68187;42.682;23.352;2023-03-01T02:19:53;95569.88;;;6.18;73.94
78835;BME280;68187;42.682;23.352;2023-03-01T02:22:25;95567.25;;;6.18;74.34
78835;BME280;68187;42.682;23.352;2023-03-01T02:25:08;95574.00;;;6.26;74.20
78835;BME280;68187;42.682;23.352;2023-03-01T02:27:46;95565.19;;;6.09;73.97
78835;BME280;68187;42.682;23.352;2023-03-01T02:30:17;95564.63;;;6.07;74.34
78835;BME280;68187;42.682;23.352;2023-03-01T02:32:44;95574.56;;;6.16;74.34
78835;BME280;68187;42.682;23.352;2023-03-01T02:35:13;95580.03;;;6.03;74.88
78835;BME280;68187;42.682;23.352;2023-03-01T02:37:41;95572.13;;;5.92;75.53
78835;BME280;68187;42.682;23.352;2023-03-01T02:40:12;95585.69;;;6.00;75.80
78835;BME280;68187;42.682;23.352;2023-03-01T02:42:47;95573.38;;;5.89;75.92
78835;BME280;68187;42.682;23.352;2023-03-01T02:45:17;95563.75;;;5.83;76.10
78835;BME280;68187;42.682;23.352;2023-03-01T02:47:44;95580.47;;;6.00;75.95
78835;BME280;68187;42.682;23.352;2023-03-01T02:50:22;95569.06;;;5.95;75.94
78835;BME280;68187;42.682;23.352;2023-03-01T02:52:56;95582.50;;;5.98;76.21
78835;BME280;68187;42.682;23.352;2023-03-01T02:55:24;95578.63;;;6.01;75.68
78835;BME280;68187;42.682;23.352;2023-03-01T02:57:51;95567.00;;;5.97;76.19
78835;BME280;68187;42.682;23.352;2023-03-01T03:00:21;95569.28;;;5.93;76.07
78835;BME280;68187;42.682;23.352;2023-03-01T03:02:52;95579.88;;;5.98;75.92
78835;BME280;68187;42.682;23.352;2023-03-01T03:05:21;95564.50;;;5.90;75.41
78835;BME280;68187;42.682;23.352;2023-03-01T03:07:49;95564.13;;;5.87;76.18
78835;BME280;68187;42.682;23.352;2023-03-01T03:10:20;95542.75;;;5.71;76.12
78835;BME280;68187;42.682;23.352;2023-03-01T03:12:49;95560.66;;;5.74;76.52
78835;BME280;68187;42.682;23.352;2023-03-01T03:15:17;95564.97;;;5.69;76.60
78835;BME280;68187;42.682;23.352;2023-03-01T03:17:45;95580.25;;;5.72;77.05
78835;BME280;68187;42.682;23.352;2023-03-01T03:20:13;95575.00;;;5.72;77.05
78835;BME280;68187;42.682;23.352;2023-03-01T03:22:44;95582.97;;;5.77;77.13
78835;BME280;68187;42.682;23.352;2023-03-01T03:25:11;95583.13;;;5.82;76.53
78835;BME280;68187;42.682;23.352;2023-03-01T03:27:40;95587.72;;;5.87;76.27
78835;BME280;68187;42.682;23.352;2023-03-01T03:30:09;95576.16;;;5.76;76.24
78835;BME280;68187;42.682;23.352;2023-03-01T03:32:38;95569.31;;;5.75;76.34
78835;BME280;68187;42.682;23.352;2023-03-01T03:35:08;95585.34;;;5.85;76.44
78835;BME280;68187;42.682;23.352;2023-03-01T03:37:36;95588.16;;;5.84;76.66
78835;BME280;68187;42.682;23.352;2023-03-01T03:40:20;95576.97;;;5.76;76.54
78835;BME280;68187;42.682;23.352;2023-03-01T03:45:32;95584.44;;;5.73;76.86
78835;BME280;68187;42.682;23.352;2023-03-01T03:48:02;95602.38;;;5.76;76.99
78835;BME280;68187;42.682;23.352;2023-03-01T03:50:30;95597.22;;;5.69;77.22
78835;BME280;68187;42.682;23.352;2023-03-01T03:52:57;95595.59;;;5.68;77.29
78835;BME280;68187;42.682;23.352;2023-03-01T03:55:24;95593.22;;;5.67;77.16
78835;BME280;68187;42.682;23.352;2023-03-01T03:57:57;95580.25;;;5.72;77.09
78835;BME280;68187;42.682;23.352;2023-03-01T04:00:46;95602.63;;;5.86;76.55
78835;BME280;68187;42.682;23.352;2023-03-01T04:03:15;95604.69;;;5.84;76.30
78835;BME280;68187;42.682;23.352;2023-03-01T04:05:43;95577.94;;;5.64;76.35
78835;BME280;68187;42.682;23.352;2023-03-01T04:08:10;95597.13;;;5.76;76.42
78835;BME280;68187;42.682;23.352;2023-03-01T04:10:39;95599.66;;;5.83;76.08
78835;BME280;68187;42.682;23.352;2023-03-01T04:13:07;95591.16;;;5.87;75.58
78835;BME280;68187;42.682;23.352;2023-03-01T04:15:35;95608.81;;;5.92;76.12
78835;BME280;68187;42.682;23.352;2023-03-01T04:18:03;95594.63;;;5.81;76.35
78835;BME280;68187;42.682;23.352;2023-03-01T04:20:32;95574.44;;;5.70;76.28
78835;BME280;68187;42.682;23.352;2023-03-01T04:23:03;95600.72;;;5.93;76.20
78835;BME280;68187;42.682;23.352;2023-03-01T04:25:37;95592.28;;;5.91;76.52
78835;BME280;68187;42.682;23.352;2023-03-01T04:28:04;95597.03;;;5.83;76.56
78835;BME280;68187;42.682;23.352;2023-03-01T04:30:31;95593.19;;;5.85;76.59
78835;BME280;68187;42.682;23.352;2023-03-01T04:33:02;95591.66;;;5.77;76.93
78835;BME280;68187;42.682;23.352;2023-03-01T04:35:29;95613.50;;;5.90;76.65
78835;BME280;68187;42.682;23.352;2023-03-01T04:37:55;95600.16;;;5.91;76.02
78835;BME280;68187;42.682;23.352;2023-03-01T04:40:24;95588.44;;;5.75;76.73
78835;BME280;68187;42.682;23.352;2023-03-01T04:42:50;95592.69;;;5.76;76.34
78835;BME280;68187;42.682;23.352;2023-03-01T04:45:18;95603.44;;;5.87;76.50
78835;BME280;68187;42.682;23.352;2023-03-01T04:47:46;95595.38;;;5.88;76.13
78835;BME280;68187;42.682;23.352;2023-03-01T04:50:14;95590.16;;;5.82;76.03
78835;BME280;68187;42.682;23.352;2023-03-01T04:52:42;95592.31;;;5.73;75.96
78835;BME280;68187;42.682;23.352;2023-03-01T04:55:10;95578.81;;;5.58;76.65
78835;BME280;68187;42.682;23.352;2023-03-01T04:57:39;95565.84;;;5.33;77.10
78835;BME280;68187;42.682;23.352;2023-03-01T05:00:07;95584.50;;;5.55;77.21
78835;BME280;68187;42.682;23.352;2023-03-01T05:02:46;95595.94;;;5.60;77.28
78835;BME280;68187;42.682;23.352;2023-03-01T05:05:14;95598.75;;;5.59;77.57
78835;BME280;68187;42.682;23.352;2023-03-01T05:07:41;95583.34;;;5.51;77.64
78835;BME280;68187;42.682;23.352;2023-03-01T05:10:09;95585.03;;;5.45;77.60
78835;BME280;68187;42.682;23.352;2023-03-01T05:12:37;95584.69;;;5.42;77.79
78835;BME280;68187;42.682;23.352;2023-03-01T05:15:05;95599.66;;;5.53;77.97
78835;BME280;68187;42.682;23.352;2023-03-01T05:17:33;95600.78;;;5.57;77.68
78835;BME280;68187;42.682;23.352;2023-03-01T05:20:00;95592.63;;;5.35;78.62
78835;BME280;68187;42.682;23.352;2023-03-01T05:22:31;95592.81;;;5.52;78.17
78835;BME280;68187;42.682;23.352;2023-03-01T05:24:58;95600.44;;;5.53;78.01
78835;BME280;68187;42.682;23.352;2023-03-01T05:27:24;95604.78;;;5.59;77.84
78835;BME280;68187;42.682;23.352;2023-03-01T05:29:52;95598.31;;;5.62;77.53
78835;BME280;68187;42.682;23.352;2023-03-01T05:32:19;95599.34;;;5.61;77.59
78835;BME280;68187;42.682;23.352;2023-03-01T05:34:46;95596.84;;;5.66;77.09
78835;BME280;68187;42.682;23.352;2023-03-01T05:37:13;95607.94;;;5.79;76.50
78835;BME280;68187;42.682;23.352;2023-03-01T05:39:40;95572.44;;;5.54;76.78
78835;BME280;68187;42.682;23.352;2023-03-01T05:42:10;95569.50;;;5.62;76.68
78835;BME280;68187;42.682;23.352;2023-03-01T05:44:37;95614.88;;;5.92;76.73
78835;BME280;68187;42.682;23.352;2023-03-01T05:47:06;95607.44;;;5.89;76.33
78835;BME280;68187;42.682;23.352;2023-03-01T05:49:32;95611.53;;;5.85;76.35
78835;BME280;68187;42.682;23.352;2023-03-01T05:52:00;95610.38;;;5.81;76.73
78835;BME280;68187;42.682;23.352;2023-03-01T05:54:26;95602.69;;;5.79;76.48
78835;BME280;68187;42.682;23.352;2023-03-01T05:56:53;95619.75;;;5.89;75.97
78835;BME280;68187;42.682;23.352;2023-03-01T05:59:20;95629.22;;;5.90;76.08
78835;BME280;68187;42.682;23.352;2023-03-01T06:01:47;95591.84;;;5.64;75.99
78835;BME280;68187;42.682;23.352;2023-03-01T06:04:15;95613.03;;;5.63;76.65
78835;BME280;68187;42.682;23.352;2023-03-01T06:06:42;95609.97;;;5.48;76.59
78835;BME280;68187;42.682;23.352;2023-03-01T06:09:14;95622.28;;;5.65;76.68
78835;BME280;68187;42.682;23.352;2023-03-01T06:11:41;95620.16;;;5.56;76.73
78835;BME280;68187;42.682;23.352;2023-03-01T06:14:08;95635.56;;;5.64;76.77
78835;BME280;68187;42.682;23.352;2023-03-01T06:16:35;95621.69;;;5.45;76.68
78835;BME280;68187;42.682;23.352;2023-03-01T06:19:02;95647.84;;;5.52;77.67
78835;BME280;68187;42.682;23.352;2023-03-01T06:21:30;95628.97;;;5.43;77.41
78835;BME280;68187;42.682;23.352;2023-03-01T06:23:57;95650.47;;;5.52;77.48
78835;BME280;68187;42.682;23.352;2023-03-01T06:26:24;95634.78;;;5.45;77.63
78835;BME280;68187;42.682;23.352;2023-03-01T06:28:51;95648.25;;;5.49;78.05
78835;BME280;68187;42.682;23.352;2023-03-01T06:31:17;95646.47;;;5.49;77.63
78835;BME280;68187;42.682;23.352;2023-03-01T06:33:44;95640.91;;;5.57;77.02
78835;BME280;68187;42.682;23.352;2023-03-01T06:36:11;95648.47;;;5.65;77.13
78835;BME280;68187;42.682;23.352;2023-03-01T06:38:39;95636.91;;;5.55;77.44
78835;BME280;68187;42.682;23.352;2023-03-01T06:41:07;95640.75;;;5.52;77.19
78835;BME280;68187;42.682;23.352;2023-03-01T06:43:33;95640.91;;;5.57;77.23
78835;BME280;68187;42.682;23.352;2023-03-01T06:46:03;95647.53;;;5.60;77.27
78835;BME280;68187;42.682;23.352;2023-03-01T06:48:30;95641.34;;;5.54;77.33
78835;BME280;68187;42.682;23.352;2023-03-01T06:50:58;95637.03;;;5.60;76.76
78835;BME280;68187;42.682;23.352;2023-03-01T06:53:26;95640.00;;;5.63;76.55
78835;BME280;68187;42.682;23.352;2023-03-01T06:55:58;95641.13;;;5.56;77.03
78835;BME280;68187;42.682;23.352;2023-03-01T06:58:25;95645.63;;;5.67;76.80
78835;BME280;68187;42.682;23.352;2023-03-01T07:00:52;95632.22;;;5.57;77.09
78835;BME280;68187;42.682;23.352;2023-03-01T07:03:19;95625.56;;;5.72;76.33
78835;BME280;68187;42.682;23.352;2023-03-01T07:05:48;95648.06;;;5.80;76.55
78835;BME280;68187;42.682;23.352;2023-03-01T07:08:17;95617.38;;;5.69;76.30
78835;BME280;68187;42.682;23.352;2023-03-01T07:10:43;95626.09;;;5.81;75.94
78835;BME280;68187;42.682;23.352;2023-03-01T07:13:12;95623.47;;;5.81;75.69
78835;BME280;68187;42.682;23.352;2023-03-01T07:15:40;95629.56;;;5.93;75.59
78835;BME280;68187;42.682;23.352;2023-03-01T07:18:09;95639.59;;;5.96;75.81
78835;BME280;68187;42.682;23.352;2023-03-01T07:20:36;95609.66;;;5.74;76.17
78835;BME280;68187;42.682;23.352;2023-03-01T07:23:03;95622.91;;;5.79;76.51
78835;BME280;68187;42.682;23.352;2023-03-01T07:25:32;95630.47;;;5.87;76.42
78835;BME280;68187;42.682;23.352;2023-03-01T07:27:59;95640.19;;;5.98;75.33
78835;BME280;68187;42.682;23.352;2023-03-01T07:30:27;95616.56;;;5.87;75.76
78835;BME280;68187;42.682;23.352;2023-03-01T07:32:54;95626.50;;;5.96;75.27
78835;BME280;68187;42.682;23.352;2023-03-01T07:35:22;95631.56;;;6.09;75.35
78835;BME280;68187;42.682;23.352;2023-03-01T07:37:49;95630.91;;;6.25;74.95
78835;BME280;68187;42.682;23.352;2023-03-01T07:40:16;95604.09;;;6.12;74.17
78835;BME280;68187;42.682;23.352;2023-03-01T07:42:42;95608.22;;;6.19;73.36
78835;BME280;68187;42.682;23.352;2023-03-01T07:45:10;95632.28;;;6.28;73.18
78835;BME280;68187;42.682;23.352;2023-03-01T07:47:38;95623.59;;;6.27;72.81
78835;BME280;68187;42.682;23.352;2023-03-01T07:50:06;95618.38;;;6.27;73.14
78835;BME280;68187;42.682;23.352;2023-03-01T07:52:33;95624.66;;;6.38;72.70
78835;BME280;68187;42.682;23.352;2023-03-01T07:55:00;95610.31;;;6.40;72.30
78835;BME280;68187;42.682;23.352;2023-03-01T07:57:27;95596.38;;;6.28;72.29
78835;BME280;68187;42.682;23.352;2023-03-01T07:59:54;95600.25;;;6.37;72.87
78835;BME280;68187;42.682;23.352;2023-03-01T08:02:21;95588.72;;;6.38;72.82
78835;BME280;68187;42.682;23.352;2023-03-01T08:04:49;95586.91;;;6.51;72.34
78835;BME280;68187;42.682;23.352;2023-03-01T08:07:16;95611.44;;;6.79;71.96
78835;BME280;68187;42.682;23.352;2023-03-01T08:09:42;95609.38;;;6.93;70.95
78835;BME280;68187;42.682;23.352;2023-03-01T08:12:09;95613.63;;;6.94;70.78
78835;BME280;68187;42.682;23.352;2023-03-01T08:14:36;95604.47;;;6.96;70.62
78835;BME280;68187;42.682;23.352;2023-03-01T08:17:02;95598.31;;;6.91;69.81
78835;BME280;68187;42.682;23.352;2023-03-01T08:19:29;95589.06;;;6.88;70.04
78835;BME280;68187;42.682;23.352;2023-03-01T08:21:58;95593.06;;;6.79;70.68
78835;BME280;68187;42.682;23.352;2023-03-01T08:24:25;95602.19;;;6.88;70.89
78835;BME280;68187;42.682;23.352;2023-03-01T08:26:52;95588.28;;;6.76;70.65
78835;BME280;68187;42.682;23.352;2023-03-01T08:29:19;95575.97;;;6.77;69.82
78835;BME280;68187;42.682;23.352;2023-03-01T08:31:47;95576.41;;;6.74;69.76
78835;BME280;68187;42.682;23.352;2023-03-01T08:34:17;95568.22;;;6.59;70.93
78835;BME280;68187;42.682;23.352;2023-03-01T08:36:47;95590.56;;;6.73;70.92
78835;BME280;68187;42.682;23.352;2023-03-01T08:39:18;95603.47;;;6.86;71.32
78835;BME280;68187;42.682;23.352;2023-03-01T08:41:48;95568.53;;;6.74;70.43
78835;BME280;68187;42.682;23.352;2023-03-01T08:44:15;95589.03;;;7.00;69.34
78835;BME280;68187;42.682;23.352;2023-03-01T08:46:44;95597.72;;;7.12;69.45
78835;BME280;68187;42.682;23.352;2023-03-01T08:49:13;95605.16;;;7.15;68.87
78835;BME280;68187;42.682;23.352;2023-03-01T08:51:40;95603.75;;;7.24;67.77
78835;BME280;68187;42.682;23.352;2023-03-01T08:54:10;95603.78;;;7.12;67.35
78835;BME280;68187;42.682;23.352;2023-03-01T08:56:39;95562.25;;;6.75;66.63
78835;BME280;68187;42.682;23.352;2023-03-01T08:59:06;95606.97;;;7.03;67.06
78835;BME280;68187;42.682;23.352;2023-03-01T09:01:33;95615.78;;;7.08;67.49
78835;BME280;68187;42.682;23.352;2023-03-01T09:04:00;95607.53;;;7.05;67.61
78835;BME280;68187;42.682;23.352;2023-03-01T09:06:30;95605.91;;;7.15;67.33
78835;BME280;68187;42.682;23.352;2023-03-01T09:08:58;95601.94;;;7.13;67.20
78835;BME280;68187;42.682;23.352;2023-03-01T09:11:25;95601.72;;;7.14;66.92
78835;BME280;68187;42.682;23.352;2023-03-01T09:13:54;95592.16;;;6.97;66.65
78835;BME280;68187;42.682;23.352;2023-03-01T09:16:23;95608.78;;;7.14;67.33
78835;BME280;68187;42.682;23.352;2023-03-01T09:18:51;95594.06;;;7.13;67.28
78835;BME280;68187;42.682;23.352;2023-03-01T09:21:20;95604.56;;;7.25;66.91
78835;BME280;68187;42.682;23.352;2023-03-01T09:23:48;95585.25;;;7.19;66.69
78835;BME280;68187;42.682;23.352;2023-03-01T09:26:17;95588.34;;;7.16;66.80
78835;BME280;68187;42.682;23.352;2023-03-01T09:28:44;95587.50;;;7.27;67.45
78835;BME280;68187;42.682;23.352;2023-03-01T09:31:13;95582.75;;;7.24;66.38
78835;BME280;68187;42.682;23.352;2023-03-01T09:33:41;95587.09;;;7.18;67.13
78835;BME280;68187;42.682;23.352;2023-03-01T09:36:12;95585.38;;;7.24;66.49
78835;BME280;68187;42.682;23.352;2023-03-01T09:38:39;95589.22;;;7.33;67.13
78835;BME280;68187;42.682;23.352;2023-03-01T09:41:10;95581.25;;;7.28;67.15
78835;BME280;68187;42.682;23.352;2023-03-01T09:43:44;95570.84;;;7.33;66.71
78835;BME280;68187;42.682;23.352;2023-03-01T09:46:14;95582.94;;;7.34;66.49
78835;BME280;68187;42.682;23.352;2023-03-01T09:48:45;95589.28;;;7.50;66.60
78835;BME280;68187;42.682;23.352;2023-03-01T09:51:17;95588.03;;;7.41;66.47
78835;BME280;68187;42.682;23.352;2023-03-01T09:53:45;95568.81;;;7.24;66.79
78835;BME280;68187;42.682;23.352;2023-03-01T09:56:17;95579.72;;;7.32;67.48
78835;BME280;68187;42.682;23.352;2023-03-01T09:58:50;95567.72;;;7.36;67.27
78835;BME280;68187;42.682;23.352;2023-03-01T10:01:32;95555.69;;;7.52;66.64
78835;BME280;68187;42.682;23.352;2023-03-01T10:04:09;95556.97;;;7.49;66.53
78835;BME280;68187;42.682;23.352;2023-03-01T10:06:44;95549.81;;;7.33;66.90
78835;BME280;68187;42.682;23.352;2023-03-01T10:09:16;95558.69;;;7.44;66.56
78835;BME280;68187;42.682;23.352;2023-03-01T10:11:48;95562.66;;;7.46;66.90
78835;BME280;68187;42.682;23.352;2023-03-01T10:14:24;95554.69;;;7.41;67.23
78835;BME280;68187;42.682;23.352;2023-03-01T10:16:57;95552.41;;;7.45;67.11
78835;BME280;68187;42.682;23.352;2023-03-01T10:19:31;95550.44;;;7.52;66.55
78835;BME280;68187;42.682;23.352;2023-03-01T10:22:03;95552.25;;;7.51;66.54
78835;BME280;68187;42.682;23.352;2023-03-01T10:24:34;95561.59;;;7.59;66.08
78835;BME280;68187;42.682;23.352;2023-03-01T10:27:05;95535.13;;;7.49;66.40
78835;BME280;68187;42.682;23.352;2023-03-01T10:29:38;95541.22;;;7.66;65.51
78835;BME280;68187;42.682;23.352;2023-03-01T10:32:09;95519.69;;;7.52;65.76
78835;BME280;68187;42.682;23.352;2023-03-01T10:34:37;95529.13;;;7.65;65.13
78835;BME280;68187;42.682;23.352;2023-03-01T10:37:10;95526.34;;;7.71;65.02
78835;BME280;68187;42.682;23.352;2023-03-01T10:39:54;95525.44;;;7.66;64.93
78835;BME280;68187;42.682;23.352;2023-03-01T10:42:26;95537.81;;;7.65;65.29
78835;BME280;68187;42.682;23.352;2023-03-01T10:44:53;95518.44;;;7.71;65.31
78835;BME280;68187;42.682;23.352;2023-03-01T10:47:24;95526.59;;;7.86;64.62
78835;BME280;68187;42.682;23.352;2023-03-01T10:49:53;95523.44;;;8.01;64.77
78835;BME280;68187;42.682;23.352;2023-03-01T10:52:21;95518.06;;;7.96;64.60
78835;BME280;68187;42.682;23.352;2023-03-01T10:54:55;95515.19;;;7.98;63.95
78835;BME280;68187;42.682;23.352;2023-03-01T10:57:29;95519.59;;;8.09;64.16
78835;BME280;68187;42.682;23.352;2023-03-01T11:00:10;95518.16;;;8.18;63.68
78835;BME280;68187;42.682;23.352;2023-03-01T11:02:43;95526.94;;;8.23;62.97
78835;BME280;68187;42.682;23.352;2023-03-01T11:05:19;95526.44;;;8.10;64.08
78835;BME280;68187;42.682;23.352;2023-03-01T11:07:47;95525.91;;;8.08;64.82
78835;BME280;68187;42.682;23.352;2023-03-01T11:10:17;95514.56;;;7.90;64.98
78835;BME280;68187;42.682;23.352;2023-03-01T11:12:44;95510.91;;;7.91;64.63
78835;BME280;68187;42.682;23.352;2023-03-01T11:15:20;95519.69;;;7.97;64.84
78835;BME280;68187;42.682;23.352;2023-03-01T11:17:49;95522.78;;;8.11;64.05
78835;BME280;68187;42.682;23.352;2023-03-01T11:20:25;95530.28;;;8.19;64.40
78835;BME280;68187;42.682;23.352;2023-03-01T11:22:54;95512.75;;;8.08;63.96
78835;BME280;68187;42.682;23.352;2023-03-01T11:25:24;95522.72;;;8.06;63.37
78835;BME280;68187;42.682;23.352;2023-03-01T11:27:53;95508.34;;;7.97;63.51
78835;BME280;68187;42.682;23.352;2023-03-01T11:30:22;95510.91;;;8.08;63.60
78835;BME280;68187;42.682;23.352;2023-03-01T11:32:59;95518.22;;;8.23;63.88
78835;BME280;68187;42.682;23.352;2023-03-01T11:35:30;95511.88;;;8.19;63.98
78835;BME280;68187;42.682;23.352;2023-03-01T11:38:04;95524.16;;;8.30;64.08
78835;BME280;68187;42.682;23.352;2023-03-01T11:40:41;95515.16;;;8.26;63.58
78835;BME280;68187;42.682;23.352;2023-03-01T11:43:16;95514.19;;;8.15;63.29
78835;BME280;68187;42.682;23.352;2023-03-01T11:46:02;95487.06;;;7.98;64.04
78835;BME280;68187;42.682;23.352;2023-03-01T11:48:46;95491.06;;;8.01;64.49
78835;BME280;68187;42.682;23.352;2023-03-01T11:51:23;95488.47;;;8.22;64.55
78835;BME280;68187;42.682;23.352;2023-03-01T11:54:02;95470.97;;;8.28;63.54
78835;BME280;68187;42.682;23.352;2023-03-01T11:56:34;95473.78;;;8.59;63.87
78835;BME280;68187;42.682;23.352;2023-03-01T11:59:11;95448.25;;;8.60;63.53
78835;BME280;68187;42.682;23.352;2023-03-01T12:01:57;95456.41;;;8.58;62.33
78835;BME280;68187;42.682;23.352;2023-03-01T12:04:52;95483.41;;;8.71;63.41
78835;BME280;68187;42.682;23.352;2023-03-01T12:07:33;95481.88;;;8.75;62.00
78835;BME280;68187;42.682;23.352;2023-03-01T12:10:23;95475.75;;;8.69;62.28
78835;BME280;68187;42.682;23.352;2023-03-01T12:15:49;95473.81;;;8.81;63.05
78835;BME280;68187;42.682;23.352;2023-03-01T12:18:32;95474.06;;;9.01;62.48
78835;BME280;68187;42.682;23.352;2023-03-01T12:21:13;95482.44;;;8.98;62.26
78835;BME280;68187;42.682;23.352;2023-03-01T12:23:59;95468.41;;;8.93;62.06
78835;BME280;68187;42.682;23.352;2023-03-01T12:26:33;95469.44;;;8.70;62.26
78835;BME280;68187;42.682;23.352;2023-03-01T12:29:21;95462.72;;;8.57;62.29
78835;BME280;68187;42.682;23.352;2023-03-01T12:32:11;95470.44;;;8.64;62.98
78835;BME280;68187;42.682;23.352;2023-03-01T12:35:03;95465.97;;;8.65;62.95
78835;BME280;68187;42.682;23.352;2023-03-01T12:37:51;95444.53;;;8.56;63.03
78835;BME280;68187;42.682;23.352;2023-03-01T12:40:33;95461.72;;;8.63;62.80
78835;BME280;68187;42.682;23.352;2023-03-01T12:43:10;95447.53;;;8.65;63.38
78835;BME280;68187;42.682;23.352;2023-03-01T12:45:48;95444.41;;;8.68;62.87
78835;BME280;68187;42.682;23.352;2023-03-01T12:48:22;95444.03;;;8.59;62.74
78835;BME280;68187;42.682;23.352;2023-03-01T12:50:52;95452.25;;;8.63;63.47
78835;BME280;68187;42.682;23.352;2023-03-01T12:53:23;95443.97;;;8.54;63.89
78835;BME280;68187;42.682;23.352;2023-03-01T12:55:52;95455.25;;;8.71;63.55
78835;BME280;68187;42.682;23.352;2023-03-01T12:58:24;95445.69;;;8.65;63.62
78835;BME280;68187;42.682;23.352;2023-03-01T13:01:05;95453.06;;;8.63;63.44
78835;BME280;68187;42.682;23.352;2023-03-01T13:03:52;95453.06;;;8.63;64.81
78835;BME280;68187;42.682;23.352;2023-03-01T13:06:29;95450.84;;;8.77;64.55
78835;BME280;68187;42.682;23.352;2023-03-01T13:09:11;95444.53;;;8.78;64.08
78835;BME280;68187;42.682;23.352;2023-03-01T13:11:41;95440.31;;;8.77;64.02
78835;BME280;68187;42.682;23.352;2023-03-01T13:14:37;95454.47;;;8.92;63.51
78835;BME280;68187;42.682;23.352;2023-03-01T13:17:30;95455.97;;;8.88;63.04
78835;BME280;68187;42.682;23.352;2023-03-01T13:19:58;95446.81;;;8.69;64.13
78835;BME280;68187;42.682;23.352;2023-03-01T13:22:27;95454.44;;;8.71;64.01